sensor_id;sensor_type;location;lat;lon;timestamp;temperature;humidity
13488;DHT22;6816;48.506;9.050;2023-06-19T00:02:25;24.50;57.70
13488;DHT22;6816;48.506;9.050;2023-06-19T00:05:26;24.50;58.00
13488;DHT22;6816;48.506;9.050;2023-06-19T00:08:27;24.50;58.50
13488;DHT22;6816;48.506;9.050;2023-06-19T00:11:27;24.40;58.10
13488;DHT22;6816;48.506;9.050;2023-06-19T00:14:28;24.30;58.20
13488;DHT22;6816;48.506;9.050;2023-06-19T00:17:28;24.30;58.30
13488;DHT22;6816;48.506;9.050;2023-06-19T00:20:29;24.20;58.40
13488;DHT22;6816;48.506;9.050;2023-06-19T00:23:30;24.10;58.50
13488;DHT22;6816;48.506;9.050;2023-06-19T00:26:30;24.00;58.60
13488;DHT22;6816;48.506;9.050;2023-06-19T00:29:32;23.90;58.80
13488;DHT22;6816;48.506;9.050;2023-06-19T00:32:32;23.90;58.90
13488;DHT22;6816;48.506;9.050;2023-06-19T00:35:47;23.80;59.10
13488;DHT22;6816;48.506;9.050;2023-06-19T00:38:47;23.70;59.10
13488;DHT22;6816;48.506;9.050;2023-06-19T00:41:51;23.60;59.40
13488;DHT22;6816;48.506;9.050;2023-06-19T00:44:52;23.60;59.90
13488;DHT22;6816;48.506;9.050;2023-06-19T00:47:53;23.60;59.70
13488;DHT22;6816;48.506;9.050;2023-06-19T00:50:56;23.60;60.00
13488;DHT22;6816;48.506;9.050;2023-06-19T00:53:57;23.50;60.30
13488;DHT22;6816;48.506;9.050;2023-06-19T00:56:57;23.50;60.50
13488;DHT22;6816;48.506;9.050;2023-06-19T00:59:58;23.50;60.60
13488;DHT22;6816;48.506;9.050;2023-06-19T01:02:59;23.50;60.60
13488;DHT22;6816;48.506;9.050;2023-06-19T01:06:01;23.50;60.80
13488;DHT22;6816;48.506;9.050;2023-06-19T01:09:05;23.50;61.00
13488;DHT22;6816;48.506;9.050;2023-06-19T01:12:15;23.50;61.20
13488;DHT22;6816;48.506;9.050;2023-06-19T01:15:17;23.50;61.70
13488;DHT22;6816;48.506;9.050;2023-06-19T01:18:19;23.50;61.20
13488;DHT22;6816;48.506;9.050;2023-06-19T01:21:20;23.50;61.40
13488;DHT22;6816;48.506;9.050;2023-06-19T01:24:21;23.50;61.60
13488;DHT22;6816;48.506;9.050;2023-06-19T01:27:23;23.60;61.90
13488;DHT22;6816;48.506;9.050;2023-06-19T01:30:25;23.60;62.20
13488;DHT22;6816;48.506;9.050;2023-06-19T01:33:28;23.50;62.80
13488;DHT22;6816;48.506;9.050;2023-06-19T01:36:30;23.50;62.00
13488;DHT22;6816;48.506;9.050;2023-06-19T01:39:32;23.50;62.00
13488;DHT22;6816;48.506;9.050;2023-06-19T01:42:34;23.50;61.90
13488;DHT22;6816;48.506;9.050;2023-06-19T01:45:36;23.50;61.80
13488;DHT22;6816;48.506;9.050;2023-06-19T01:48:38;23.50;61.70
13488;DHT22;6816;48.506;9.050;2023-06-19T01:51:38;23.40;62.50
13488;DHT22;6816;48.506;9.050;2023-06-19T01:54:39;23.40;61.70
13488;DHT22;6816;48.506;9.050;2023-06-19T01:57:40;23.50;61.80
13488;DHT22;6816;48.506;9.050;2023-06-19T02:00:41;23.40;61.80
13488;DHT22;6816;48.506;9.050;2023-06-19T02:03:41;23.40;61.80
13488;DHT22;6816;48.506;9.050;2023-06-19T02:06:42;23.40;61.90
13488;DHT22;6816;48.506;9.050;2023-06-19T02:09:42;23.40;61.90
13488;DHT22;6816;48.506;9.050;2023-06-19T02:12:43;23.40;61.90
13488;DHT22;6816;48.506;9.050;2023-06-19T02:15:44;23.40;62.10
13488;DHT22;6816;48.506;9.050;2023-06-19T02:18:44;23.40;62.10
13488;DHT22;6816;48.506;9.050;2023-06-19T02:21:45;23.40;62.10
13488;DHT22;6816;48.506;9.050;2023-06-19T02:24:45;23.30;62.30
13488;DHT22;6816;48.506;9.050;2023-06-19T02:27:46;23.30;62.30
13488;DHT22;6816;48.506;9.050;2023-06-19T02:30:47;23.30;62.50
13488;DHT22;6816;48.506;9.050;2023-06-19T02:33:49;23.30;62.70
13488;DHT22;6816;48.506;9.050;2023-06-19T02:36:50;23.30;62.90
13488;DHT22;6816;48.506;9.050;2023-06-19T02:39:51;23.20;63.00
13488;DHT22;6816;48.506;9.050;2023-06-19T02:42:51;23.20;63.10
13488;DHT22;6816;48.506;9.050;2023-06-19T02:45:52;23.20;63.30
13488;DHT22;6816;48.506;9.050;2023-06-19T02:48:53;23.20;63.40
13488;DHT22;6816;48.506;9.050;2023-06-19T02:51:53;23.20;63.60
13488;DHT22;6816;48.506;9.050;2023-06-19T02:54:54;23.20;63.50
13488;DHT22;6816;48.506;9.050;2023-06-19T02:57:55;23.20;63.70
13488;DHT22;6816;48.506;9.050;2023-06-19T03:00:55;23.20;63.70
13488;DHT22;6816;48.506;9.050;2023-06-19T03:03:56;23.20;63.70
13488;DHT22;6816;48.506;9.050;2023-06-19T03:06:56;23.10;63.80
13488;DHT22;6816;48.506;9.050;2023-06-19T03:09:57;23.00;63.80
13488;DHT22;6816;48.506;9.050;2023-06-19T03:12:58;23.10;63.80
13488;DHT22;6816;48.506;9.050;2023-06-19T03:15:59;23.10;64.00
13488;DHT22;6816;48.506;9.050;2023-06-19T03:19:00;23.10;64.10
13488;DHT22;6816;48.506;9.050;2023-06-19T03:22:00;23.10;64.10
13488;DHT22;6816;48.506;9.050;2023-06-19T03:25:01;23.10;64.30
13488;DHT22;6816;48.506;9.050;2023-06-19T03:28:01;23.00;64.30
13488;DHT22;6816;48.506;9.050;2023-06-19T03:31:03;23.00;64.50
13488;DHT22;6816;48.506;9.050;2023-06-19T03:34:03;23.00;64.60
13488;DHT22;6816;48.506;9.050;2023-06-19T03:37:04;23.00;64.60
13488;DHT22;6816;48.506;9.050;2023-06-19T03:40:05;23.00;64.70
13488;DHT22;6816;48.506;9.050;2023-06-19T03:43:06;23.00;64.80
13488;DHT22;6816;48.506;9.050;2023-06-19T03:46:07;23.00;64.80
13488;DHT22;6816;48.506;9.050;2023-06-19T03:49:07;23.00;64.70
13488;DHT22;6816;48.506;9.050;2023-06-19T03:52:09;23.00;64.60
13488;DHT22;6816;48.506;9.050;2023-06-19T03:55:10;23.00;64.70
13488;DHT22;6816;48.506;9.050;2023-06-19T03:58:10;23.10;64.80
13488;DHT22;6816;48.506;9.050;2023-06-19T04:01:11;23.10;64.70
13488;DHT22;6816;48.506;9.050;2023-06-19T04:04:12;23.10;64.90
13488;DHT22;6816;48.506;9.050;2023-06-19T04:07:13;23.20;65.50
13488;DHT22;6816;48.506;9.050;2023-06-19T04:10:13;23.20;65.80
13488;DHT22;6816;48.506;9.050;2023-06-19T04:13:14;23.20;66.40
13488;DHT22;6816;48.506;9.050;2023-06-19T04:16:16;23.20;66.80
13488;DHT22;6816;48.506;9.050;2023-06-19T04:19:17;23.20;67.00
13488;DHT22;6816;48.506;9.050;2023-06-19T04:22:17;23.20;67.20
13488;DHT22;6816;48.506;9.050;2023-06-19T04:25:18;23.20;67.60
13488;DHT22;6816;48.506;9.050;2023-06-19T04:28:19;23.10;68.10
13488;DHT22;6816;48.506;9.050;2023-06-19T04:31:19;23.10;68.50
13488;DHT22;6816;48.506;9.050;2023-06-19T04:34:20;23.00;68.70
13488;DHT22;6816;48.506;9.050;2023-06-19T04:37:21;23.00;69.10
13488;DHT22;6816;48.506;9.050;2023-06-19T04:40:22;22.90;69.50
13488;DHT22;6816;48.506;9.050;2023-06-19T04:43:22;22.90;69.80
13488;DHT22;6816;48.506;9.050;2023-06-19T04:46:25;22.90;69.70
13488;DHT22;6816;48.506;9.050;2023-06-19T04:49:25;22.90;70.60
13488;DHT22;6816;48.506;9.050;2023-06-19T04:52:26;22.90;70.20
13488;DHT22;6816;48.506;9.050;2023-06-19T04:55:26;22.90;70.40
13488;DHT22;6816;48.506;9.050;2023-06-19T04:58:27;22.90;70.30
13488;DHT22;6816;48.506;9.050;2023-06-19T05:01:28;23.00;70.10
13488;DHT22;6816;48.506;9.050;2023-06-19T05:04:29;23.00;70.30
13488;DHT22;6816;48.506;9.050;2023-06-19T05:07:33;23.00;70.50
13488;DHT22;6816;48.506;9.050;2023-06-19T05:10:33;23.00;70.50
13488;DHT22;6816;48.506;9.050;2023-06-19T05:13:34;23.10;70.40
13488;DHT22;6816;48.506;9.050;2023-06-19T05:16:34;23.10;70.40
13488;DHT22;6816;48.506;9.050;2023-06-19T05:19:35;23.20;70.70
13488;DHT22;6816;48.506;9.050;2023-06-19T05:22:36;23.20;70.80
13488;DHT22;6816;48.506;9.050;2023-06-19T05:25:37;23.20;70.60
13488;DHT22;6816;48.506;9.050;2023-06-19T05:28:38;23.30;70.30
13488;DHT22;6816;48.506;9.050;2023-06-19T05:31:38;23.30;70.40
13488;DHT22;6816;48.506;9.050;2023-06-19T05:34:39;23.40;70.30
13488;DHT22;6816;48.506;9.050;2023-06-19T05:37:39;23.40;70.40
13488;DHT22;6816;48.506;9.050;2023-06-19T05:40:43;23.50;70.60
13488;DHT22;6816;48.506;9.050;2023-06-19T05:43:44;23.50;70.40
13488;DHT22;6816;48.506;9.050;2023-06-19T05:46:44;23.60;70.30
13488;DHT22;6816;48.506;9.050;2023-06-19T05:49:46;23.60;70.10
13488;DHT22;6816;48.506;9.050;2023-06-19T05:52:47;23.70;70.20
13488;DHT22;6816;48.506;9.050;2023-06-19T05:55:48;23.80;70.20
13488;DHT22;6816;48.506;9.050;2023-06-19T05:58:48;23.90;70.00
13488;DHT22;6816;48.506;9.050;2023-06-19T06:01:49;24.00;69.90
13488;DHT22;6816;48.506;9.050;2023-06-19T06:04:51;24.00;69.70
13488;DHT22;6816;48.506;9.050;2023-06-19T06:07:51;24.10;69.60
13488;DHT22;6816;48.506;9.050;2023-06-19T06:10:52;24.10;69.60
13488;DHT22;6816;48.506;9.050;2023-06-19T06:13:53;24.20;69.70
13488;DHT22;6816;48.506;9.050;2023-06-19T06:16:53;24.30;69.40
13488;DHT22;6816;48.506;9.050;2023-06-19T06:19:54;24.30;69.30
13488;DHT22;6816;48.506;9.050;2023-06-19T06:22:55;24.40;69.00
13488;DHT22;6816;48.506;9.050;2023-06-19T06:25:55;24.50;68.80
13488;DHT22;6816;48.506;9.050;2023-06-19T06:29:01;24.60;68.80
13488;DHT22;6816;48.506;9.050;2023-06-19T06:32:06;24.60;68.60
13488;DHT22;6816;48.506;9.050;2023-06-19T06:35:07;24.70;68.60
13488;DHT22;6816;48.506;9.050;2023-06-19T06:38:08;24.80;68.50
13488;DHT22;6816;48.506;9.050;2023-06-19T06:41:09;24.80;68.20
13488;DHT22;6816;48.506;9.050;2023-06-19T06:44:09;24.80;68.60
13488;DHT22;6816;48.506;9.050;2023-06-19T06:47:11;24.90;67.80
13488;DHT22;6816;48.506;9.050;2023-06-19T06:50:12;24.90;67.80
13488;DHT22;6816;48.506;9.050;2023-06-19T06:53:12;24.90;67.70
13488;DHT22;6816;48.506;9.050;2023-06-19T06:56:13;25.00;67.90
13488;DHT22;6816;48.506;9.050;2023-06-19T06:59:14;25.00;67.80
13488;DHT22;6816;48.506;9.050;2023-06-19T07:02:16;25.00;68.10
13488;DHT22;6816;48.506;9.050;2023-06-19T07:05:16;25.10;68.00
13488;DHT22;6816;48.506;9.050;2023-06-19T07:08:17;25.10;67.90
13488;DHT22;6816;48.506;9.050;2023-06-19T07:11:18;25.20;68.00
13488;DHT22;6816;48.506;9.050;2023-06-19T07:14:18;25.20;68.10
13488;DHT22;6816;48.506;9.050;2023-06-19T07:17:19;25.30;68.00
13488;DHT22;6816;48.506;9.050;2023-06-19T07:20:20;25.40;67.90
13488;DHT22;6816;48.506;9.050;2023-06-19T07:23:20;25.40;67.60
13488;DHT22;6816;48.506;9.050;2023-06-19T07:26:21;25.50;67.60
13488;DHT22;6816;48.506;9.050;2023-06-19T07:29:22;25.50;67.50
13488;DHT22;6816;48.506;9.050;2023-06-19T07:32:23;25.60;67.30
13488;DHT22;6816;48.506;9.050;2023-06-19T07:35:23;25.60;67.30
13488;DHT22;6816;48.506;9.050;2023-06-19T07:38:24;25.80;67.70
13488;DHT22;6816;48.506;9.050;2023-06-19T07:41:25;25.90;66.60
13488;DHT22;6816;48.506;9.050;2023-06-19T07:44:25;26.10;66.10
13488;DHT22;6816;48.506;9.050;2023-06-19T07:47:26;26.20;65.70
13488;DHT22;6816;48.506;9.050;2023-06-19T07:50:27;26.30;65.40
13488;DHT22;6816;48.506;9.050;2023-06-19T07:53:28;26.40;65.30
13488;DHT22;6816;48.506;9.050;2023-06-19T07:56:28;26.50;65.20
13488;DHT22;6816;48.506;9.050;2023-06-19T07:59:29;26.60;64.90
13488;DHT22;6816;48.506;9.050;2023-06-19T08:02:29;26.70;65.10
13488;DHT22;6816;48.506;9.050;2023-06-19T08:05:30;26.80;65.20
13488;DHT22;6816;48.506;9.050;2023-06-19T08:08:31;26.90;64.60
13488;DHT22;6816;48.506;9.050;2023-06-19T08:11:31;27.10;64.10
13488;DHT22;6816;48.506;9.050;2023-06-19T08:14:32;27.20;63.90
13488;DHT22;6816;48.506;9.050;2023-06-19T08:17:33;27.40;63.80
13488;DHT22;6816;48.506;9.050;2023-06-19T08:20:33;27.50;63.20
13488;DHT22;6816;48.506;9.050;2023-06-19T08:23:34;27.60;62.90
13488;DHT22;6816;48.506;9.050;2023-06-19T08:26:34;27.60;62.20
13488;DHT22;6816;48.506;9.050;2023-06-19T08:29:35;27.70;61.90
13488;DHT22;6816;48.506;9.050;2023-06-19T08:32:36;27.70;61.60
13488;DHT22;6816;48.506;9.050;2023-06-19T08:35:36;27.80;61.40
13488;DHT22;6816;48.506;9.050;2023-06-19T08:38:37;27.90;61.20
13488;DHT22;6816;48.506;9.050;2023-06-19T08:41:38;28.00;61.00
13488;DHT22;6816;48.506;9.050;2023-06-19T08:44:39;28.10;61.10
13488;DHT22;6816;48.506;9.050;2023-06-19T08:47:40;28.10;61.00
13488;DHT22;6816;48.506;9.050;2023-06-19T08:50:40;28.30;60.50
13488;DHT22;6816;48.506;9.050;2023-06-19T08:54:05;28.40;60.30
13488;DHT22;6816;48.506;9.050;2023-06-19T08:57:06;28.60;60.00
13488;DHT22;6816;48.506;9.050;2023-06-19T09:00:07;28.80;60.30
13488;DHT22;6816;48.506;9.050;2023-06-19T09:03:10;29.00;59.90
13488;DHT22;6816;48.506;9.050;2023-06-19T09:06:11;29.20;60.10
13488;DHT22;6816;48.506;9.050;2023-06-19T09:09:11;29.40;59.90
13488;DHT22;6816;48.506;9.050;2023-06-19T09:12:14;29.60;58.40
13488;DHT22;6816;48.506;9.050;2023-06-19T09:15:15;29.80;57.80
13488;DHT22;6816;48.506;9.050;2023-06-19T09:18:16;30.00;57.20
13488;DHT22;6816;48.506;9.050;2023-06-19T09:21:21;30.10;56.20
13488;DHT22;6816;48.506;9.050;2023-06-19T09:24:36;30.10;54.80
13488;DHT22;6816;48.506;9.050;2023-06-19T09:27:37;30.10;54.10
13488;DHT22;6816;48.506;9.050;2023-06-19T09:30:38;30.10;54.80
13488;DHT22;6816;48.506;9.050;2023-06-19T09:33:40;30.10;54.60
13488;DHT22;6816;48.506;9.050;2023-06-19T09:36:40;30.10;54.50
13488;DHT22;6816;48.506;9.050;2023-06-19T09:39:42;30.10;54.30
13488;DHT22;6816;48.506;9.050;2023-06-19T09:42:43;30.10;54.30
13488;DHT22;6816;48.506;9.050;2023-06-19T09:45:48;30.10;54.00
13488;DHT22;6816;48.506;9.050;2023-06-19T09:48:52;30.10;54.00
13488;DHT22;6816;48.506;9.050;2023-06-19T09:51:55;30.20;53.60
13488;DHT22;6816;48.506;9.050;2023-06-19T09:54:55;30.20;53.40
13488;DHT22;6816;48.506;9.050;2023-06-19T09:57:58;30.30;53.60
13488;DHT22;6816;48.506;9.050;2023-06-19T10:00:59;30.40;53.30
13488;DHT22;6816;48.506;9.050;2023-06-19T10:04:03;30.40;53.00
13488;DHT22;6816;48.506;9.050;2023-06-19T10:07:15;30.50;52.70
13488;DHT22;6816;48.506;9.050;2023-06-19T10:10:26;30.60;52.20
13488;DHT22;6816;48.506;9.050;2023-06-19T10:13:35;30.70;52.30
13488;DHT22;6816;48.506;9.050;2023-06-19T10:16:36;30.80;52.40
13488;DHT22;6816;48.506;9.050;2023-06-19T10:19:37;30.80;52.60
13488;DHT22;6816;48.506;9.050;2023-06-19T10:22:37;30.90;52.30
13488;DHT22;6816;48.506;9.050;2023-06-19T10:25:40;31.00;52.10
13488;DHT22;6816;48.506;9.050;2023-06-19T10:28:46;31.00;51.90
13488;DHT22;6816;48.506;9.050;2023-06-19T10:31:48;31.10;51.10
13488;DHT22;6816;48.506;9.050;2023-06-19T10:34:48;31.10;51.60
13488;DHT22;6816;48.506;9.050;2023-06-19T10:37:50;31.10;51.50
13488;DHT22;6816;48.506;9.050;2023-06-19T10:40:51;31.20;51.50
13488;DHT22;6816;48.506;9.050;2023-06-19T10:43:58;31.20;51.20
13488;DHT22;6816;48.506;9.050;2023-06-19T10:46:59;31.30;51.00
13488;DHT22;6816;48.506;9.050;2023-06-19T10:50:00;31.30;50.90
13488;DHT22;6816;48.506;9.050;2023-06-19T10:53:01;31.40;50.80
13488;DHT22;6816;48.506;9.050;2023-06-19T10:56:02;31.40;50.80
13488;DHT22;6816;48.506;9.050;2023-06-19T10:59:05;31.50;51.20
13488;DHT22;6816;48.506;9.050;2023-06-19T11:02:10;31.50;50.40
13488;DHT22;6816;48.506;9.050;2023-06-19T11:05:11;31.50;49.80
13488;DHT22;6816;48.506;9.050;2023-06-19T11:08:18;31.60;49.70
13488;DHT22;6816;48.506;9.050;2023-06-19T11:11:19;31.60;49.20
13488;DHT22;6816;48.506;9.050;2023-06-19T11:14:20;31.80;49.50
13488;DHT22;6816;48.506;9.050;2023-06-19T11:17:22;31.80;49.00
13488;DHT22;6816;48.506;9.050;2023-06-19T11:20:23;31.90;49.00
13488;DHT22;6816;48.506;9.050;2023-06-19T11:23:27;32.00;48.70
13488;DHT22;6816;48.506;9.050;2023-06-19T11:26:27;32.10;48.50
13488;DHT22;6816;48.506;9.050;2023-06-19T11:29:33;32.10;48.50
13488;DHT22;6816;48.506;9.050;2023-06-19T11:32:36;32.20;48.20
13488;DHT22;6816;48.506;9.050;2023-06-19T11:35:41;32.30;48.30
13488;DHT22;6816;48.506;9.050;2023-06-19T11:38:47;32.30;48.00
13488;DHT22;6816;48.506;9.050;2023-06-19T11:41:47;32.40;47.40
13488;DHT22;6816;48.506;9.050;2023-06-19T11:45:02;32.50;47.50
13488;DHT22;6816;48.506;9.050;2023-06-19T11:48:05;32.60;46.30
13488;DHT22;6816;48.506;9.050;2023-06-19T11:51:06;32.70;46.90
13488;DHT22;6816;48.506;9.050;2023-06-19T11:54:11;32.70;46.40
13488;DHT22;6816;48.506;9.050;2023-06-19T11:57:12;32.80;46.10
13488;DHT22;6816;48.506;9.050;2023-06-19T12:00:15;32.80;46.30
13488;DHT22;6816;48.506;9.050;2023-06-19T12:03:16;32.90;46.00
13488;DHT22;6816;48.506;9.050;2023-06-19T12:06:17;32.90;46.20
13488;DHT22;6816;48.506;9.050;2023-06-19T12:09:18;32.90;45.30
13488;DHT22;6816;48.506;9.050;2023-06-19T12:12:19;32.90;45.40
13488;DHT22;6816;48.506;9.050;2023-06-19T12:15:19;32.90;45.60
13488;DHT22;6816;48.506;9.050;2023-06-19T12:18:20;32.90;45.50
13488;DHT22;6816;48.506;9.050;2023-06-19T12:21:20;33.00;45.60
13488;DHT22;6816;48.506;9.050;2023-06-19T12:24:21;33.00;45.40
13488;DHT22;6816;48.506;9.050;2023-06-19T12:27:22;33.10;45.20
13488;DHT22;6816;48.506;9.050;2023-06-19T12:30:22;33.10;45.30
13488;DHT22;6816;48.506;9.050;2023-06-19T12:33:24;33.20;45.40
13488;DHT22;6816;48.506;9.050;2023-06-19T12:36:25;33.20;45.20
13488;DHT22;6816;48.506;9.050;2023-06-19T12:39:25;33.20;45.00
13488;DHT22;6816;48.506;9.050;2023-06-19T12:42:26;33.30;44.90
13488;DHT22;6816;48.506;9.050;2023-06-19T12:45:27;33.30;44.50
13488;DHT22;6816;48.506;9.050;2023-06-19T12:48:28;33.20;44.60
13488;DHT22;6816;48.506;9.050;2023-06-19T12:51:29;33.30;44.90
13488;DHT22;6816;48.506;9.050;2023-06-19T12:54:31;33.30;44.40
13488;DHT22;6816;48.506;9.050;2023-06-19T12:57:32;33.20;44.20
13488;DHT22;6816;48.506;9.050;2023-06-19T13:00:33;33.30;44.10
13488;DHT22;6816;48.506;9.050;2023-06-19T13:03:33;33.30;43.80
13488;DHT22;6816;48.506;9.050;2023-06-19T13:06:36;33.30;43.40
13488;DHT22;6816;48.506;9.050;2023-06-19T13:09:36;33.40;43.40
13488;DHT22;6816;48.506;9.050;2023-06-19T13:12:37;33.40;43.20
13488;DHT22;6816;48.506;9.050;2023-06-19T13:15:37;33.50;43.00
13488;DHT22;6816;48.506;9.050;2023-06-19T13:18:38;33.50;43.20
13488;DHT22;6816;48.506;9.050;2023-06-19T13:21:40;33.50;43.20
13488;DHT22;6816;48.506;9.050;2023-06-19T13:24:40;33.60;43.20
13488;DHT22;6816;48.506;9.050;2023-06-19T13:27:41;33.60;43.10
13488;DHT22;6816;48.506;9.050;2023-06-19T13:30:41;33.70;43.00
13488;DHT22;6816;48.506;9.050;2023-06-19T13:33:42;33.70;42.60
13488;DHT22;6816;48.506;9.050;2023-06-19T13:36:43;33.70;42.40
13488;DHT22;6816;48.506;9.050;2023-06-19T13:39:43;33.70;42.20
13488;DHT22;6816;48.506;9.050;2023-06-19T13:42:44;33.70;42.50
13488;DHT22;6816;48.506;9.050;2023-06-19T13:45:45;33.70;42.60
13488;DHT22;6816;48.506;9.050;2023-06-19T13:48:45;33.70;42.80
13488;DHT22;6816;48.506;9.050;2023-06-19T13:51:50;33.70;42.60
13488;DHT22;6816;48.506;9.050;2023-06-19T13:54:51;33.70;42.70
13488;DHT22;6816;48.506;9.050;2023-06-19T13:57:52;33.70;42.80
13488;DHT22;6816;48.506;9.050;2023-06-19T14:00:52;33.80;43.00
13488;DHT22;6816;48.506;9.050;2023-06-19T14:03:53;33.90;42.80
13488;DHT22;6816;48.506;9.050;2023-06-19T14:06:54;33.90;42.70
13488;DHT22;6816;48.506;9.050;2023-06-19T14:09:55;34.00;42.60
13488;DHT22;6816;48.506;9.050;2023-06-19T14:12:56;34.10;42.20
13488;DHT22;6816;48.506;9.050;2023-06-19T14:15:56;34.10;41.70
13488;DHT22;6816;48.506;9.050;2023-06-19T14:18:57;34.10;41.50
13488;DHT22;6816;48.506;9.050;2023-06-19T14:21:58;34.20;41.70
13488;DHT22;6816;48.506;9.050;2023-06-19T14:24:58;34.20;41.90
13488;DHT22;6816;48.506;9.050;2023-06-19T14:28:02;34.20;42.00
13488;DHT22;6816;48.506;9.050;2023-06-19T14:31:02;34.20;42.10
13488;DHT22;6816;48.506;9.050;2023-06-19T14:34:03;34.20;41.80
13488;DHT22;6816;48.506;9.050;2023-06-19T14:37:04;34.20;41.90
13488;DHT22;6816;48.506;9.050;2023-06-19T14:40:05;34.20;41.90
13488;DHT22;6816;48.506;9.050;2023-06-19T14:43:06;34.20;42.30
13488;DHT22;6816;48.506;9.050;2023-06-19T14:46:09;34.20;42.10
13488;DHT22;6816;48.506;9.050;2023-06-19T14:49:11;34.10;42.10
13488;DHT22;6816;48.506;9.050;2023-06-19T14:52:13;34.00;42.10
13488;DHT22;6816;48.506;9.050;2023-06-19T14:55:16;34.00;42.00
13488;DHT22;6816;48.506;9.050;2023-06-19T14:58:17;34.00;42.00
13488;DHT22;6816;48.506;9.050;2023-06-19T15:01:17;33.90;42.30
13488;DHT22;6816;48.506;9.050;2023-06-19T15:04:18;33.90;42.10
13488;DHT22;6816;48.506;9.050;2023-06-19T15:07:18;33.90;42.10
13488;DHT22;6816;48.506;9.050;2023-06-19T15:10:19;33.90;42.00
13488;DHT22;6816;48.506;9.050;2023-06-19T15:13:20;33.80;41.80
13488;DHT22;6816;48.506;9.050;2023-06-19T15:16:20;33.70;41.60
13488;DHT22;6816;48.506;9.050;2023-06-19T15:19:23;33.70;41.90
13488;DHT22;6816;48.506;9.050;2023-06-19T15:22:24;33.60;41.90
13488;DHT22;6816;48.506;9.050;2023-06-19T15:25:25;33.50;41.70
13488;DHT22;6816;48.506;9.050;2023-06-19T15:28:29;33.30;43.80
13488;DHT22;6816;48.506;9.050;2023-06-19T15:31:29;33.20;45.40
13488;DHT22;6816;48.506;9.050;2023-06-19T15:34:33;33.00;47.30
13488;DHT22;6816;48.506;9.050;2023-06-19T15:37:33;32.80;46.70
13488;DHT22;6816;48.506;9.050;2023-06-19T15:40:34;32.60;46.90
13488;DHT22;6816;48.506;9.050;2023-06-19T15:43:35;32.40;47.40
13488;DHT22;6816;48.506;9.050;2023-06-19T15:46:35;32.30;48.70
13488;DHT22;6816;48.506;9.050;2023-06-19T15:49:36;32.20;49.00
13488;DHT22;6816;48.506;9.050;2023-06-19T15:52:37;32.10;49.80
13488;DHT22;6816;48.506;9.050;2023-06-19T15:55:38;32.00;49.10
13488;DHT22;6816;48.506;9.050;2023-06-19T15:58:38;32.00;48.70
13488;DHT22;6816;48.506;9.050;2023-06-19T16:01:39;32.00;48.50
13488;DHT22;6816;48.506;9.050;2023-06-19T16:04:40;31.90;48.40
13488;DHT22;6816;48.506;9.050;2023-06-19T16:07:41;31.90;48.80
13488;DHT22;6816;48.506;9.050;2023-06-19T16:10:42;31.90;49.10
13488;DHT22;6816;48.506;9.050;2023-06-19T16:13:43;32.00;49.20
13488;DHT22;6816;48.506;9.050;2023-06-19T16:16:43;32.10;49.20
13488;DHT22;6816;48.506;9.050;2023-06-19T16:19:44;32.10;49.20
13488;DHT22;6816;48.506;9.050;2023-06-19T16:22:45;32.10;48.80
13488;DHT22;6816;48.506;9.050;2023-06-19T16:25:45;32.10;48.50
13488;DHT22;6816;48.506;9.050;2023-06-19T16:28:46;32.00;48.40
13488;DHT22;6816;48.506;9.050;2023-06-19T16:31:46;32.00;48.50
13488;DHT22;6816;48.506;9.050;2023-06-19T16:34:48;32.10;48.40
13488;DHT22;6816;48.506;9.050;2023-06-19T16:37:51;32.00;48.30
13488;DHT22;6816;48.506;9.050;2023-06-19T16:40:53;32.00;48.30
13488;DHT22;6816;48.506;9.050;2023-06-19T16:43:54;31.90;48.20
13488;DHT22;6816;48.506;9.050;2023-06-19T16:46:54;31.80;48.20
13488;DHT22;6816;48.506;9.050;2023-06-19T16:49:55;31.80;48.60
13488;DHT22;6816;48.506;9.050;2023-06-19T16:52:56;31.70;49.50
13488;DHT22;6816;48.506;9.050;2023-06-19T16:55:56;31.60;49.30
13488;DHT22;6816;48.506;9.050;2023-06-19T16:58:58;31.60;49.50
13488;DHT22;6816;48.506;9.050;2023-06-19T17:02:00;31.60;49.40
13488;DHT22;6816;48.506;9.050;2023-06-19T17:05:00;31.50;49.30
13488;DHT22;6816;48.506;9.050;2023-06-19T17:08:01;31.50;49.50
13488;DHT22;6816;48.506;9.050;2023-06-19T17:11:01;31.50;49.60
13488;DHT22;6816;48.506;9.050;2023-06-19T17:14:02;31.50;49.90
13488;DHT22;6816;48.506;9.050;2023-06-19T17:17:03;31.40;49.60
13488;DHT22;6816;48.506;9.050;2023-06-19T17:20:04;31.40;49.60
13488;DHT22;6816;48.506;9.050;2023-06-19T17:23:05;31.40;49.80
13488;DHT22;6816;48.506;9.050;2023-06-19T17:26:06;31.30;50.00
13488;DHT22;6816;48.506;9.050;2023-06-19T17:29:07;31.20;50.20
13488;DHT22;6816;48.506;9.050;2023-06-19T17:32:07;31.10;50.30
13488;DHT22;6816;48.506;9.050;2023-06-19T17:35:09;31.00;50.40
13488;DHT22;6816;48.506;9.050;2023-06-19T17:38:10;31.00;50.80
13488;DHT22;6816;48.506;9.050;2023-06-19T17:41:11;30.90;51.20
13488;DHT22;6816;48.506;9.050;2023-06-19T17:44:11;30.90;51.50
13488;DHT22;6816;48.506;9.050;2023-06-19T17:47:12;30.80;51.80
13488;DHT22;6816;48.506;9.050;2023-06-19T17:50:13;30.70;51.90
13488;DHT22;6816;48.506;9.050;2023-06-19T17:53:14;30.70;51.90
13488;DHT22;6816;48.506;9.050;2023-06-19T17:56:15;30.70;51.80
13488;DHT22;6816;48.506;9.050;2023-06-19T17:59:16;30.60;51.90
13488;DHT22;6816;48.506;9.050;2023-06-19T18:02:17;30.60;52.00
13488;DHT22;6816;48.506;9.050;2023-06-19T18:05:18;30.60;52.00
13488;DHT22;6816;48.506;9.050;2023-06-19T18:08:18;30.70;52.40
13488;DHT22;6816;48.506;9.050;2023-06-19T18:11:19;30.70;52.50
13488;DHT22;6816;48.506;9.050;2023-06-19T18:14:19;30.60;52.70
13488;DHT22;6816;48.506;9.050;2023-06-19T18:17:25;30.60;52.80
13488;DHT22;6816;48.506;9.050;2023-06-19T18:20:25;30.60;53.20
13488;DHT22;6816;48.506;9.050;2023-06-19T18:23:26;30.60;53.40
13488;DHT22;6816;48.506;9.050;2023-06-19T18:26:26;30.50;53.40
13488;DHT22;6816;48.506;9.050;2023-06-19T18:29:27;30.50;53.40
13488;DHT22;6816;48.506;9.050;2023-06-19T18:32:31;30.40;53.40
13488;DHT22;6816;48.506;9.050;2023-06-19T18:35:32;30.40;53.50
13488;DHT22;6816;48.506;9.050;2023-06-19T18:38:33;30.30;54.20
13488;DHT22;6816;48.506;9.050;2023-06-19T18:41:34;30.20;53.60
13488;DHT22;6816;48.506;9.050;2023-06-19T18:44:34;30.10;53.70
13488;DHT22;6816;48.506;9.050;2023-06-19T18:47:35;30.00;53.90
13488;DHT22;6816;48.506;9.050;2023-06-19T18:50:35;29.90;54.10
13488;DHT22;6816;48.506;9.050;2023-06-19T18:53:36;29.80;54.40
13488;DHT22;6816;48.506;9.050;2023-06-19T18:56:37;29.70;54.70
13488;DHT22;6816;48.506;9.050;2023-06-19T18:59:39;29.60;55.00
13488;DHT22;6816;48.506;9.050;2023-06-19T19:02:40;29.50;55.10
13488;DHT22;6816;48.506;9.050;2023-06-19T19:05:40;29.40;55.40
13488;DHT22;6816;48.506;9.050;2023-06-19T19:08:41;29.40;55.60
13488;DHT22;6816;48.506;9.050;2023-06-19T19:11:41;29.20;55.90
13488;DHT22;6816;48.506;9.050;2023-06-19T19:14:43;29.10;56.10
13488;DHT22;6816;48.506;9.050;2023-06-19T19:17:44;29.00;56.50
13488;DHT22;6816;48.506;9.050;2023-06-19T19:20:44;29.00;56.70
13488;DHT22;6816;48.506;9.050;2023-06-19T19:23:46;28.80;57.00